createdAt,value
2023-02-07T00:00:46.268Z,20.00
2023-02-07T00:01:48.398Z,21.20
2023-02-07T00:02:50.993Z,23.27
2023-02-07T00:03:55.188Z,18.80
2023-02-07T00:04:58.295Z,19.85
2023-02-07T00:06:21.516Z,17.67
2023-02-07T00:07:23.136Z,18.70
2023-02-07T00:08:25.582Z,16.92
2023-02-07T00:09:27.639Z,18.92
2023-02-07T00:10:29.494Z,21.50
2023-02-07T00:11:31.395Z,18.45
2023-02-07T00:12:33.794Z,22.00
2023-02-07T00:13:36.258Z,19.35
2023-02-07T00:14:38.288Z,19.67
2023-02-07T00:15:40.387Z,19.50
2023-02-07T00:16:42.730Z,15.80
2023-02-07T00:17:44.634Z,20.73
2023-02-07T00:18:47.856Z,20.15
2023-02-07T00:19:49.911Z,19.52
2023-02-07T00:21:03.289Z,18.48
2023-02-07T00:22:05.074Z,19.33
2023-02-07T00:23:06.866Z,20.75
2023-02-07T00:24:08.745Z,18.98
2023-02-07T00:25:11.311Z,21.80
2023-02-07T00:26:14.825Z,18.73
2023-02-07T00:27:18.908Z,24.08
2023-02-07T00:28:20.973Z,19.85
2023-02-07T00:29:23.002Z,20.30
2023-02-07T00:30:26.686Z,21.67
2023-02-07T00:31:31.640Z,20.50
2023-02-07T00:32:34.939Z,21.75
2023-02-07T00:33:38.287Z,20.17
2023-02-07T00:34:40.542Z,20.17
2023-02-07T00:35:42.871Z,21.30
2023-02-07T00:36:45.551Z,21.15
2023-02-07T00:37:47.552Z,21.33
2023-02-07T00:38:49.504Z,22.15
2023-02-07T00:39:51.341Z,22.90
2023-02-07T00:40:54.061Z,21.30
2023-02-07T00:42:58.054Z,22.08
2023-02-07T00:44:00.211Z,25.35
2023-02-07T00:45:02.457Z,23.35
2023-02-07T00:46:05.801Z,20.70
2023-02-07T00:47:07.670Z,23.65
2023-02-07T00:48:09.669Z,23.75
2023-02-07T00:49:11.989Z,24.42
2023-02-07T00:50:14.296Z,23.33
2023-02-07T00:51:16.237Z,22.23
2023-02-07T00:52:20.176Z,23.70
2023-02-07T00:53:22.887Z,29.63
2023-02-07T00:55:27.736Z,21.83
2023-02-07T00:56:30.395Z,22.05
2023-02-07T00:57:33.992Z,23.35
2023-02-07T00:58:36.858Z,25.33
2023-02-07T00:59:39.005Z,22.33
2023-02-07T01:00:40.782Z,21.08
2023-02-07T01:01:42.927Z,22.13
2023-02-07T01:02:45.174Z,21.05
2023-02-07T01:03:47.079Z,24.42
2023-02-07T01:04:49.528Z,23.20
2023-02-07T01:05:51.401Z,24.77
2023-02-07T01:06:53.522Z,25.00
2023-02-07T01:07:55.348Z,22.95
2023-02-07T01:08:58.560Z,21.13
2023-02-07T01:10:02.690Z,22.63
2023-02-07T01:11:10.527Z,23.52
2023-02-07T01:12:13.593Z,23.23
2023-02-07T01:13:16.175Z,22.17
2023-02-07T01:14:18.528Z,22.55
2023-02-07T01:15:20.264Z,23.08
2023-02-07T01:16:27.714Z,25.50
2023-02-07T01:17:29.539Z,22.13
2023-02-07T01:18:31.764Z,23.58
2023-02-07T01:19:33.605Z,26.05
2023-02-07T01:20:35.966Z,22.73
2023-02-07T01:21:39.333Z,22.65
2023-02-07T01:22:41.270Z,23.20
2023-02-07T01:23:43.480Z,24.58
2023-02-07T01:24:45.428Z,23.77
2023-02-07T01:25:47.673Z,19.60
2023-02-07T01:26:49.767Z,24.02
2023-02-07T01:27:52.306Z,21.27
2023-02-07T01:28:55.238Z,20.90
2023-02-07T01:29:57.852Z,22.25
2023-02-07T01:31:00.247Z,21.95
2023-02-07T01:32:02.262Z,21.65
2023-02-07T01:33:04.829Z,22.15
2023-02-07T01:34:07.022Z,20.23
2023-02-07T01:35:09.456Z,22.73
2023-02-07T01:36:14.392Z,17.98
2023-02-07T01:37:16.171Z,20.58
2023-02-07T01:38:19.086Z,23.58
2023-02-07T01:39:20.896Z,21.50
2023-02-07T01:40:22.740Z,23.52
2023-02-07T01:41:25.824Z,20.95
2023-02-07T01:42:29.367Z,22.38
2023-02-07T01:43:31.889Z,17.17
2023-02-07T01:44:36.693Z,25.98
2023-02-07T01:45:40.978Z,21.92
2023-02-07T01:46:43.838Z,19.98
2023-02-07T01:47:46.378Z,19.55
2023-02-07T01:48:48.572Z,22.83
2023-02-07T01:49:53.448Z,21.30
2023-02-07T01:50:57.275Z,23.10
2023-02-07T01:52:11.247Z,18.70
2023-02-07T01:53:15.104Z,19.88
2023-02-07T01:54:17.466Z,24.83
2023-02-07T01:55:26.833Z,19.83
2023-02-07T01:56:32.069Z,22.05
2023-02-07T01:57:35.374Z,24.75
2023-02-07T01:58:38.218Z,22.48
2023-02-07T01:59:44.332Z,22.50
2023-02-07T02:00:46.551Z,21.50
2023-02-07T02:01:48.957Z,17.23
2023-02-07T02:02:52.427Z,18.65
2023-02-07T02:03:55.707Z,20.13
2023-02-07T02:04:58.085Z,20.85
2023-02-07T02:05:59.860Z,15.85
2023-02-07T02:07:06.605Z,19.10
2023-02-07T02:08:08.200Z,20.27
2023-02-07T02:09:12.852Z,20.40
2023-02-07T02:10:22.753Z,25.08
2023-02-07T02:11:48.856Z,14.05
2023-02-07T02:13:03.024Z,17.98
2023-02-07T02:14:24.245Z,19.17
2023-02-07T02:15:43.447Z,17.98
2023-02-07T02:16:55.681Z,15.75
2023-02-07T02:18:13.879Z,17.98
2023-02-07T02:19:39.807Z,17.13
2023-02-07T02:20:58.545Z,21.30
2023-02-07T02:22:15.421Z,18.42
2023-02-07T02:23:41.787Z,20.95
2023-02-07T02:25:04.913Z,14.98
2023-02-07T02:26:23.628Z,18.38
2023-02-07T02:27:32.751Z,19.13
2023-02-07T02:28:52.470Z,20.65
2023-02-07T02:30:31.137Z,15.27
2023-02-07T02:31:50.811Z,17.98
2023-02-07T02:33:10.591Z,20.63
2023-02-07T02:34:49.997Z,17.98
2023-02-07T02:36:01.131Z,12.98
2023-02-07T02:37:33.896Z,19.92
2023-02-07T02:38:58.295Z,14.48
2023-02-07T02:40:09.691Z,19.25
2023-02-07T02:41:17.959Z,18.67
2023-02-07T02:42:26.461Z,17.48
2023-02-07T02:43:31.563Z,20.85
2023-02-07T02:44:38.631Z,16.70
2023-02-07T02:45:44.003Z,18.63
2023-02-07T02:46:45.925Z,18.98
2023-02-07T02:47:48.830Z,16.92
2023-02-07T02:48:51.417Z,16.25
2023-02-07T02:49:52.990Z,22.48
2023-02-07T02:50:55.601Z,20.83
2023-02-07T02:51:57.522Z,21.35
2023-02-07T02:52:59.411Z,20.05
2023-02-07T02:54:02.879Z,20.50
2023-02-07T02:55:13.483Z,19.08
2023-02-07T02:56:33.000Z,18.50
2023-02-07T02:57:57.425Z,19.88
2023-02-07T02:59:24.043Z,20.98
2023-02-07T03:00:38.130Z,19.48
2023-02-07T03:02:02.578Z,16.77
2023-02-07T03:03:23.795Z,18.65
2023-02-07T03:04:34.806Z,19.05
2023-02-07T03:05:57.737Z,17.98
2023-02-07T03:06:59.338Z,20.02
2023-02-07T03:08:18.929Z,20.73
2023-02-07T03:09:42.098Z,20.52
2023-02-07T03:10:50.859Z,17.35
2023-02-07T03:12:01.072Z,18.67
2023-02-07T03:13:21.108Z,16.92
2023-02-07T03:14:32.070Z,16.95
2023-02-07T03:15:45.042Z,15.73
2023-02-07T03:17:26.043Z,18.30
2023-02-07T03:18:49.658Z,17.40
2023-02-07T03:20:02.433Z,20.67
2023-02-07T03:21:26.686Z,18.83
2023-02-07T03:22:28.870Z,19.20
2023-02-07T03:23:30.943Z,16.83
2023-02-07T03:24:34.649Z,22.48
2023-02-07T03:25:39.082Z,19.40
2023-02-07T03:26:43.400Z,17.65
2023-02-07T03:27:46.361Z,15.73
2023-02-07T03:28:48.805Z,13.68
2023-02-07T03:29:57.582Z,16.83
2023-02-07T03:31:00.873Z,16.08
2023-02-07T03:32:04.816Z,17.88
2023-02-07T03:33:11.772Z,18.73
2023-02-07T03:34:17.852Z,18.55
2023-02-07T03:36:03.635Z,18.33
2023-02-07T03:37:38.407Z,17.50
2023-02-07T03:38:40.035Z,14.38
2023-02-07T03:39:41.672Z,14.93
2023-02-07T03:40:48.287Z,18.17
2023-02-07T03:41:57.616Z,17.20
2023-02-07T03:43:13.371Z,16.30
2023-02-07T03:44:15.786Z,17.85
2023-02-07T03:45:19.893Z,18.85
2023-02-07T03:46:21.734Z,18.20
2023-02-07T03:47:23.378Z,18.77
2023-02-07T03:48:25.006Z,20.25
2023-02-07T03:49:26.645Z,21.83
2023-02-07T03:50:28.924Z,18.10
2023-02-07T03:51:30.543Z,20.83
2023-02-07T03:52:32.018Z,28.95
2023-02-07T03:53:33.672Z,17.77
2023-02-07T03:54:35.245Z,19.30
2023-02-07T03:55:37.077Z,20.45
2023-02-07T03:56:38.965Z,18.83
2023-02-07T03:57:40.670Z,20.05
2023-02-07T03:58:42.290Z,22.83
2023-02-07T03:59:43.879Z,20.38
2023-02-07T04:00:45.608Z,18.77
2023-02-07T04:01:47.331Z,18.88
2023-02-07T04:02:49.036Z,18.02
2023-02-07T04:03:50.742Z,19.85
2023-02-07T04:04:52.556Z,19.25
2023-02-07T04:05:54.187Z,19.85
2023-02-07T04:06:55.813Z,22.98
2023-02-07T04:07:57.471Z,18.60
2023-02-07T04:08:59.213Z,19.27
2023-02-07T04:10:00.855Z,19.73
2023-02-07T04:11:04.313Z,19.77
2023-02-07T04:12:06.076Z,19.67
2023-02-07T04:13:07.716Z,20.95
2023-02-07T04:14:09.876Z,45.30
2023-02-07T04:15:11.674Z,18.85
2023-02-07T04:16:13.336Z,18.48
2023-02-07T04:17:14.968Z,20.00
2023-02-07T04:18:16.681Z,17.73
2023-02-07T04:19:18.514Z,21.77
2023-02-07T04:20:20.282Z,18.08
2023-02-07T04:21:21.936Z,18.50
2023-02-07T04:22:23.547Z,18.50
2023-02-07T04:23:25.231Z,21.58
2023-02-07T04:24:26.900Z,19.63
2023-02-07T04:25:28.599Z,20.80
2023-02-07T04:26:30.218Z,16.17
2023-02-07T04:27:31.835Z,20.48
2023-02-07T04:28:33.636Z,20.65
2023-02-07T04:29:35.169Z,19.13
2023-02-07T04:30:36.853Z,19.02
2023-02-07T04:31:38.745Z,16.15
2023-02-07T04:32:40.390Z,17.15
2023-02-07T04:33:42.143Z,18.95
2023-02-07T04:34:43.846Z,21.17
2023-02-07T04:35:45.464Z,15.95
2023-02-07T04:36:47.114Z,19.20
2023-02-07T04:37:49.041Z,20.20
2023-02-07T04:38:50.746Z,19.25
2023-02-07T04:39:52.313Z,18.45
2023-02-07T04:40:58.867Z,18.70
2023-02-07T04:42:00.518Z,18.52
2023-02-07T04:43:02.427Z,19.83
2023-02-07T04:44:04.043Z,22.63
2023-02-07T04:45:06.071Z,20.00
2023-02-07T04:46:08.503Z,21.77
2023-02-07T04:47:10.232Z,20.58
2023-02-07T04:48:12.109Z,21.35
2023-02-07T04:49:13.691Z,23.77
2023-02-07T04:50:15.524Z,20.30
2023-02-07T04:51:17.151Z,19.33
2023-02-07T04:52:18.783Z,27.30
2023-02-07T04:53:20.449Z,21.42
2023-02-07T04:54:22.721Z,19.05
2023-02-07T04:55:24.386Z,18.38
2023-02-07T04:56:26.022Z,23.27
2023-02-07T04:57:27.641Z,19.73
2023-02-07T04:58:29.306Z,20.10
2023-02-07T04:59:30.952Z,19.67
2023-02-07T05:00:33.446Z,18.52
2023-02-07T05:01:35.016Z,19.92
2023-02-07T05:02:36.595Z,29.92
2023-02-07T05:03:38.418Z,23.25
2023-02-07T05:04:40.140Z,19.52
2023-02-07T05:05:43.048Z,20.50
2023-02-07T05:06:44.846Z,21.75
2023-02-07T05:07:46.736Z,17.52
2023-02-07T05:08:48.398Z,17.92
2023-02-07T05:09:50.013Z,18.58
2023-02-07T05:10:55.580Z,19.58
2023-02-07T05:11:57.193Z,20.63
2023-02-07T05:12:58.825Z,20.00
2023-02-07T05:14:00.478Z,22.25
2023-02-07T05:15:02.152Z,20.45
2023-02-07T05:16:04.632Z,16.83
2023-02-07T05:17:06.529Z,22.65
2023-02-07T05:18:08.118Z,18.08
2023-02-07T05:19:09.988Z,18.90
2023-02-07T05:20:12.217Z,21.20
2023-02-07T05:21:13.874Z,24.60
2023-02-07T05:22:15.464Z,20.77
2023-02-07T05:23:17.380Z,18.65
2023-02-07T05:24:19.130Z,21.30
2023-02-07T05:25:20.827Z,21.63
2023-02-07T05:26:22.691Z,20.00
2023-02-07T05:27:24.357Z,20.27
2023-02-07T05:28:25.987Z,21.30
2023-02-07T05:29:27.774Z,17.98
2023-02-07T05:30:29.478Z,22.33
2023-02-07T05:31:50.104Z,19.92
2023-02-07T05:33:06.994Z,20.70
2023-02-07T05:34:08.613Z,19.95
2023-02-07T05:35:10.185Z,23.52
2023-02-07T05:36:11.778Z,22.75
2023-02-07T05:37:13.363Z,26.83
2023-02-07T05:38:16.991Z,33.03
2023-02-07T05:39:18.643Z,20.17
2023-02-07T05:40:20.588Z,24.10
2023-02-07T05:41:22.167Z,22.83
2023-02-07T05:42:23.983Z,20.88
2023-02-07T05:43:25.626Z,20.80
2023-02-07T05:44:27.327Z,20.75
2023-02-07T05:45:29.383Z,19.80
2023-02-07T05:46:30.978Z,22.25
2023-02-07T05:47:33.110Z,20.38
2023-02-07T05:48:34.741Z,17.58
2023-02-07T05:49:37.497Z,21.80
2023-02-07T05:51:40.863Z,18.27
2023-02-07T05:52:43.045Z,18.45
2023-02-07T05:53:44.689Z,20.65
2023-02-07T05:54:46.675Z,23.77
2023-02-07T05:55:51.812Z,19.48
2023-02-07T05:56:53.414Z,22.98
2023-02-07T05:57:55.083Z,20.90
2023-02-07T05:58:56.692Z,20.90
2023-02-07T05:59:58.539Z,19.83
2023-02-07T06:01:00.134Z,18.17
2023-02-07T06:02:01.844Z,19.17
2023-02-07T06:03:03.837Z,20.80
2023-02-07T06:04:05.678Z,19.73
2023-02-07T06:05:09.201Z,20.60
2023-02-07T06:06:11.393Z,19.08
2023-02-07T06:07:13.495Z,24.83
2023-02-07T06:09:34.455Z,23.88
2023-02-07T06:10:36.096Z,22.92
2023-02-07T06:11:37.709Z,33.03
2023-02-07T06:12:39.316Z,22.00
2023-02-07T06:13:40.889Z,21.00
2023-02-07T06:14:42.707Z,21.83
2023-02-07T06:15:44.266Z,23.98
2023-02-07T06:16:45.854Z,23.05
2023-02-07T06:17:47.710Z,21.15
2023-02-07T06:18:49.437Z,24.77
2023-02-07T06:19:53.562Z,19.77
2023-02-07T06:20:55.309Z,21.88
2023-02-07T06:21:56.932Z,23.85
2023-02-07T06:22:58.536Z,20.05
2023-02-07T06:24:00.296Z,19.77
2023-02-07T06:25:01.927Z,20.90
2023-02-07T06:26:03.563Z,19.63
2023-02-07T06:27:05.587Z,17.92
2023-02-07T06:28:07.322Z,19.10
2023-02-07T06:29:09.308Z,20.08
2023-02-07T06:30:12.508Z,18.52
2023-02-07T06:31:14.369Z,22.60
2023-02-07T06:32:15.995Z,17.20
2023-02-07T06:33:17.768Z,17.45
2023-02-07T06:34:19.538Z,20.25
2023-02-07T06:35:21.213Z,20.15
2023-02-07T06:36:22.884Z,20.13
2023-02-07T06:37:24.556Z,17.27
2023-02-07T06:38:26.307Z,20.83
2023-02-07T06:39:28.318Z,18.35
2023-02-07T06:40:30.069Z,20.50
2023-02-07T06:41:31.833Z,19.45
2023-02-07T06:42:33.481Z,19.65
2023-02-07T06:43:35.044Z,18.60
2023-02-07T06:44:36.773Z,16.85
2023-02-07T06:45:38.657Z,17.52
2023-02-07T06:46:40.592Z,19.25
2023-02-07T06:47:42.216Z,19.15
2023-02-07T06:48:43.819Z,18.60
2023-02-07T06:49:45.438Z,20.23
2023-02-07T06:50:50.603Z,16.80
2023-02-07T06:51:52.154Z,23.15
2023-02-07T06:52:53.717Z,20.50
2023-02-07T06:53:55.393Z,15.38
2023-02-07T06:54:56.964Z,17.50
2023-02-07T06:55:58.799Z,20.80
2023-02-07T06:57:00.371Z,24.05
2023-02-07T06:58:01.992Z,21.50
2023-02-07T06:59:03.600Z,28.15
2023-02-07T07:00:06.039Z,18.35
2023-02-07T07:01:07.907Z,18.77
2023-02-07T07:02:11.864Z,16.67
2023-02-07T07:03:15.132Z,25.58
2023-02-07T07:04:18.352Z,26.00
2023-02-07T07:05:19.977Z,19.20
2023-02-07T07:06:21.826Z,17.67
2023-02-07T07:07:23.414Z,15.20
2023-02-07T07:08:25.857Z,17.75
2023-02-07T07:09:27.867Z,17.45
2023-02-07T07:10:29.662Z,21.55
2023-02-07T07:11:31.530Z,13.63
2023-02-07T07:12:33.728Z,19.75
2023-02-07T07:13:35.438Z,17.33
2023-02-07T07:14:37.119Z,17.70
2023-02-07T07:15:39.015Z,17.10
2023-02-07T07:16:41.069Z,17.73
2023-02-07T07:17:42.718Z,18.98
2023-02-07T07:18:44.367Z,17.20
2023-02-07T07:19:46.173Z,13.75
2023-02-07T07:20:53.129Z,17.27
2023-02-07T07:21:55.493Z,16.70
2023-02-07T07:22:57.090Z,15.98
2023-02-07T07:23:58.833Z,16.65
2023-02-07T07:25:00.546Z,19.13
2023-02-07T07:26:02.194Z,14.32
2023-02-07T07:27:03.953Z,13.52
2023-02-07T07:28:05.794Z,15.00
2023-02-07T07:29:08.358Z,13.50
2023-02-07T07:30:10.999Z,15.90
2023-02-07T07:31:13.151Z,14.40
2023-02-07T07:33:30.276Z,12.55
2023-02-07T07:34:31.828Z,17.50
2023-02-07T07:35:33.856Z,13.48
2023-02-07T07:36:35.451Z,15.30
2023-02-07T07:37:37.144Z,17.33
2023-02-07T07:38:39.727Z,16.17
2023-02-07T07:39:41.698Z,15.25
2023-02-07T07:40:43.584Z,16.55
2023-02-07T07:41:45.157Z,15.40
2023-02-07T07:42:53.169Z,15.25
2023-02-07T07:44:03.859Z,16.73
2023-02-07T07:45:05.914Z,14.23
2023-02-07T07:46:08.827Z,13.38
2023-02-07T07:47:10.627Z,14.57
2023-02-07T07:48:12.512Z,14.50
2023-02-07T07:49:14.198Z,14.77
2023-02-07T07:50:15.871Z,14.27
2023-02-07T07:51:17.505Z,14.77
2023-02-07T07:52:19.929Z,13.65
2023-02-07T07:53:22.002Z,15.77
2023-02-07T07:54:23.754Z,14.32
2023-02-07T07:55:25.488Z,12.50
2023-02-07T07:56:29.440Z,12.93
2023-02-07T07:57:31.051Z,13.15
2023-02-07T07:58:32.663Z,12.50
2023-02-07T07:59:34.320Z,12.18
2023-02-07T08:00:35.960Z,12.60
2023-02-07T08:01:37.580Z,12.50
2023-02-07T08:02:39.229Z,13.27
2023-02-07T08:03:41.198Z,14.25
2023-02-07T08:04:43.067Z,11.25
2023-02-07T08:05:45.457Z,12.02
2023-02-07T08:06:47.205Z,12.70
2023-02-07T08:07:49.012Z,11.25
2023-02-07T08:08:50.621Z,13.25
2023-02-07T08:09:52.206Z,12.38
2023-02-07T08:10:54.392Z,8.65
2023-02-07T08:11:56.014Z,11.02
2023-02-07T08:12:58.080Z,11.90
2023-02-07T08:13:59.712Z,11.25
2023-02-07T08:15:01.356Z,12.00
2023-02-07T08:16:04.947Z,9.35
2023-02-07T08:17:06.626Z,13.02
2023-02-07T08:18:08.353Z,12.60
2023-02-07T08:19:10.049Z,10.85
2023-02-07T08:20:12.600Z,10.65
2023-02-07T08:21:14.412Z,12.13
2023-02-07T08:22:16.169Z,11.45
2023-02-07T08:23:17.784Z,11.50
2023-02-07T08:24:19.739Z,11.65
2023-02-07T08:25:21.355Z,9.65
2023-02-07T08:26:22.981Z,10.50
2023-02-07T08:27:24.723Z,10.73
2023-02-07T08:28:27.214Z,9.82
2023-02-07T08:29:29.129Z,12.73
2023-02-07T08:30:30.708Z,11.35
2023-02-07T08:31:32.644Z,12.48
2023-02-07T08:32:34.403Z,11.32
2023-02-07T08:33:36.061Z,11.30
2023-02-07T08:34:37.802Z,10.98
2023-02-07T08:35:39.806Z,10.70
2023-02-07T08:36:41.788Z,11.77
2023-02-07T08:37:44.048Z,11.55
2023-02-07T08:38:45.653Z,10.65
2023-02-07T08:39:48.087Z,11.43
2023-02-07T08:40:50.128Z,11.25
2023-02-07T08:41:52.520Z,12.52
2023-02-07T08:42:54.142Z,12.07
2023-02-07T08:43:55.793Z,13.27
2023-02-07T08:44:57.691Z,10.63
2023-02-07T08:46:00.720Z,10.02
2023-02-07T08:47:02.835Z,12.52
2023-02-07T08:48:04.502Z,13.57
2023-02-07T08:49:06.144Z,11.75
2023-02-07T08:50:08.931Z,11.30
2023-02-07T08:51:10.600Z,10.18
2023-02-07T08:52:12.465Z,11.18
2023-02-07T08:53:14.147Z,13.68
2023-02-07T08:54:15.877Z,11.80
2023-02-07T08:55:17.931Z,13.20
2023-02-07T08:56:19.792Z,11.65
2023-02-07T08:57:25.073Z,14.23
2023-02-07T08:58:27.809Z,13.32
2023-02-07T08:59:29.715Z,12.70
2023-02-07T09:00:31.412Z,13.35
2023-02-07T09:01:33.191Z,12.80
2023-02-07T09:02:35.237Z,13.27
2023-02-07T09:03:39.616Z,12.32
2023-02-07T09:04:43.284Z,11.90
2023-02-07T09:05:45.447Z,11.88
2023-02-07T09:06:47.444Z,11.60
2023-02-07T09:07:49.090Z,11.18
2023-02-07T09:08:50.704Z,11.77
2023-02-07T09:09:52.281Z,7.95
2023-02-07T09:10:54.052Z,12.80
2023-02-07T09:11:55.729Z,10.68
2023-02-07T09:12:57.844Z,9.88
2023-02-07T09:13:59.494Z,12.73
2023-02-07T09:15:01.670Z,10.68
2023-02-07T09:16:03.293Z,10.20
2023-02-07T09:17:04.964Z,12.52
2023-02-07T09:18:06.659Z,12.45
2023-02-07T09:19:08.232Z,10.07
2023-02-07T09:20:10.716Z,11.93
2023-02-07T09:21:12.361Z,10.80
2023-02-07T09:22:14.448Z,10.35
2023-02-07T09:23:19.423Z,9.50
2023-02-07T09:24:21.401Z,10.68
2023-02-07T09:25:23.666Z,12.15
2023-02-07T09:26:29.363Z,10.57
2023-02-07T09:27:31.029Z,12.60
2023-02-07T09:28:33.614Z,8.38
2023-02-07T09:29:35.514Z,11.43
2023-02-07T09:30:37.594Z,11.23
2023-02-07T09:31:39.347Z,10.73
2023-02-07T09:32:41.235Z,11.43
2023-02-07T09:33:44.343Z,12.60
2023-02-07T09:34:45.943Z,10.98
2023-02-07T09:35:47.574Z,10.32
2023-02-07T09:36:51.232Z,12.38
2023-02-07T09:37:54.335Z,12.23
2023-02-07T09:38:56.482Z,11.13
2023-02-07T09:39:58.100Z,10.85
2023-02-07T09:41:00.029Z,9.20
2023-02-07T09:42:02.898Z,11.23
2023-02-07T09:43:28.286Z,11.02
2023-02-07T09:44:59.444Z,11.68
2023-02-07T09:46:13.461Z,11.30
2023-02-07T09:47:21.057Z,10.55
2023-02-07T09:48:25.784Z,9.95
2023-02-07T09:49:42.321Z,10.93
2023-02-07T09:50:55.279Z,9.98
2023-02-07T09:51:58.787Z,11.13
2023-02-07T09:53:10.360Z,11.68
2023-02-07T09:54:27.486Z,10.77
2023-02-07T09:55:37.231Z,11.85
2023-02-07T09:56:39.494Z,9.95
2023-02-07T09:58:09.957Z,11.65
2023-02-07T09:59:22.762Z,9.52
2023-02-07T10:00:37.802Z,13.48
2023-02-07T10:01:48.944Z,10.85
2023-02-07T10:02:56.670Z,11.30
2023-02-07T10:04:30.534Z,10.77
2023-02-07T10:05:45.738Z,11.38
2023-02-07T10:06:52.636Z,12.43
2023-02-07T10:07:54.430Z,10.45
2023-02-07T10:08:59.507Z,11.02
2023-02-07T10:10:01.138Z,12.50
2023-02-07T10:11:34.461Z,12.52
2023-02-07T10:13:06.028Z,11.18
2023-02-07T10:14:18.172Z,12.20
2023-02-07T10:15:31.554Z,12.52
2023-02-07T10:16:46.221Z,11.25
2023-02-07T10:18:08.832Z,10.75
2023-02-07T10:19:10.798Z,11.38
2023-02-07T10:20:30.396Z,11.27
2023-02-07T10:21:59.752Z,12.65
2023-02-07T10:23:12.770Z,10.95
2023-02-07T10:24:40.233Z,11.75
2023-02-07T10:26:16.233Z,11.65
2023-02-07T10:27:30.881Z,10.18
2023-02-07T10:29:47.053Z,10.63
2023-02-07T10:30:55.413Z,10.65
2023-02-07T10:32:00.119Z,11.45
2023-02-07T10:33:10.265Z,13.48
2023-02-07T10:34:19.326Z,10.88
2023-02-07T10:35:37.049Z,11.55
2023-02-07T10:36:40.768Z,10.70
2023-02-07T10:37:44.766Z,14.13
2023-02-07T10:39:15.526Z,11.55
2023-02-07T10:40:26.688Z,10.70
2023-02-07T10:41:39.867Z,12.55
2023-02-07T10:42:42.765Z,11.38
2023-02-07T10:43:47.032Z,10.98
2023-02-07T10:44:48.773Z,10.85
2023-02-07T10:45:57.032Z,12.57
2023-02-07T10:47:04.252Z,9.63
2023-02-07T10:48:16.179Z,11.35
2023-02-07T10:49:27.391Z,11.93
2023-02-07T10:50:30.493Z,13.18
2023-02-07T10:51:45.931Z,14.07
2023-02-07T10:52:51.286Z,10.93
2023-02-07T10:54:09.449Z,10.10
2023-02-07T10:55:12.869Z,13.88
2023-02-07T10:56:24.945Z,11.05
2023-02-07T10:57:28.564Z,11.52
2023-02-07T10:58:40.318Z,9.88
2023-02-07T10:59:48.820Z,10.38
2023-02-07T11:00:54.467Z,8.55
2023-02-07T11:01:56.482Z,9.43
2023-02-07T11:03:21.108Z,14.25
2023-02-07T11:04:27.751Z,10.38
2023-02-07T11:05:41.099Z,10.50
2023-02-07T11:06:42.861Z,9.52
2023-02-07T11:08:02.272Z,11.48
2023-02-07T11:09:24.311Z,11.15
2023-02-07T11:10:29.149Z,11.88
2023-02-07T11:11:32.986Z,12.65
2023-02-07T11:12:34.644Z,10.93
2023-02-07T11:13:47.435Z,12.30
2023-02-07T11:15:05.084Z,13.05
2023-02-07T11:16:08.612Z,11.13
2023-02-07T11:17:20.303Z,12.00
2023-02-07T11:18:28.437Z,11.93
2023-02-07T11:19:30.837Z,10.73
2023-02-07T11:20:36.575Z,10.77
2023-02-07T11:21:45.029Z,11.45
2023-02-07T11:22:46.674Z,10.98
2023-02-07T11:23:49.774Z,9.50
2023-02-07T11:24:53.648Z,12.63
2023-02-07T11:25:56.573Z,11.77
2023-02-07T11:27:13.924Z,11.55
2023-02-07T11:28:27.369Z,9.95
2023-02-07T11:29:30.649Z,8.70
2023-02-07T11:30:34.479Z,10.32
2023-02-07T11:31:37.243Z,9.77
2023-02-07T11:32:39.150Z,10.07
2023-02-07T11:33:41.038Z,11.13
2023-02-07T11:34:48.750Z,10.95
2023-02-07T11:36:11.692Z,9.57
2023-02-07T11:37:19.060Z,9.15
2023-02-07T11:38:20.758Z,8.25
2023-02-07T11:39:23.516Z,8.43
2023-02-07T11:40:30.033Z,11.02
2023-02-07T11:41:33.477Z,10.55
2023-02-07T11:42:36.069Z,11.60
2023-02-07T11:44:42.597Z,12.13
2023-02-07T11:45:46.914Z,9.43
2023-02-07T11:46:49.965Z,10.48
2023-02-07T11:47:54.354Z,9.73
2023-02-07T11:48:58.146Z,9.25
2023-02-07T11:50:04.990Z,11.02
2023-02-07T11:51:08.169Z,9.80
2023-02-07T11:52:10.157Z,9.73
2023-02-07T11:53:57.164Z,12.98
2023-02-07T11:55:06.714Z,7.45
2023-02-07T11:56:21.393Z,11.07
2023-02-07T11:57:24.018Z,8.73
2023-02-07T11:59:49.485Z,8.90
2023-02-07T12:00:51.236Z,9.90
2023-02-07T12:01:55.875Z,10.70
2023-02-07T12:03:08.873Z,8.88
2023-02-07T12:04:16.538Z,9.82
2023-02-07T12:05:21.887Z,9.95
2023-02-07T12:06:29.120Z,11.85
2023-02-07T12:07:53.315Z,9.00
2023-02-07T12:08:55.517Z,13.20
2023-02-07T12:09:59.841Z,9.25
2023-02-07T12:11:05.938Z,12.63
2023-02-07T12:12:39.028Z,9.90
2023-02-07T12:13:48.609Z,11.52
2023-02-07T12:14:50.152Z,9.55
2023-02-07T12:15:55.229Z,8.82
2023-02-07T12:16:59.977Z,9.70
2023-02-07T12:18:30.808Z,9.77
2023-02-07T12:19:35.279Z,11.02
2023-02-07T12:20:44.568Z,13.93
2023-02-07T12:22:28.443Z,10.13
2023-02-07T12:23:45.139Z,8.93
2023-02-07T12:24:58.607Z,9.38
2023-02-07T12:26:05.783Z,7.78
2023-02-07T12:27:16.496Z,8.55
2023-02-07T12:28:26.202Z,8.27
2023-02-07T12:30:01.826Z,7.82
2023-02-07T12:31:30.710Z,11.13
2023-02-07T12:32:58.606Z,8.18
2023-02-07T12:34:08.900Z,9.57
2023-02-07T12:35:17.799Z,11.15
2023-02-07T12:36:34.126Z,7.10
2023-02-07T12:37:52.118Z,7.70
2023-02-07T12:38:58.811Z,9.05
2023-02-07T12:40:12.671Z,9.88
2023-02-07T12:41:33.735Z,8.85
2023-02-07T12:44:09.825Z,10.80
2023-02-07T12:45:16.622Z,11.45
2023-02-07T12:46:25.369Z,8.45
2023-02-07T12:47:47.811Z,6.38
2023-02-07T12:49:05.788Z,8.20
2023-02-07T12:50:35.559Z,8.00
2023-02-07T12:52:06.329Z,6.25
2023-02-07T12:53:11.812Z,10.23
2023-02-07T12:54:22.586Z,8.60
2023-02-07T12:55:27.515Z,7.72
2023-02-07T12:56:39.845Z,7.32
2023-02-07T12:57:41.334Z,8.10
2023-02-07T12:59:11.846Z,8.88
2023-02-07T13:00:19.156Z,7.57
2023-02-07T13:01:30.126Z,8.88
2023-02-07T13:02:53.594Z,6.70
2023-02-07T13:04:00.902Z,6.50
2023-02-07T13:05:17.443Z,9.48
2023-02-07T13:06:30.911Z,6.85
2023-02-07T13:07:46.021Z,10.10
2023-02-07T13:09:12.119Z,6.15
2023-02-07T13:10:36.329Z,6.68
2023-02-07T13:11:49.672Z,6.93
2023-02-07T13:13:04.714Z,6.20
2023-02-07T13:14:54.964Z,6.25
2023-02-07T13:16:47.219Z,6.35
2023-02-07T13:17:58.353Z,6.18
2023-02-07T13:19:14.092Z,6.00
2023-02-07T13:20:31.901Z,5.72
2023-02-07T13:21:40.838Z,8.70
2023-02-07T13:24:05.234Z,7.32
2023-02-07T13:25:12.026Z,7.05
2023-02-07T13:26:17.166Z,7.88
2023-02-07T13:27:20.679Z,5.88
2023-02-07T13:28:54.182Z,6.18
2023-02-07T13:29:56.542Z,5.47
2023-02-07T13:31:00.048Z,6.25
2023-02-07T13:32:05.413Z,10.55
2023-02-07T13:33:32.580Z,7.20
2023-02-07T13:34:44.317Z,6.20
2023-02-07T13:35:47.163Z,6.60
2023-02-07T13:36:50.175Z,5.40
2023-02-07T13:38:03.533Z,5.07
2023-02-07T13:39:27.627Z,5.63
2023-02-07T13:40:50.649Z,7.13
2023-02-07T13:42:29.069Z,6.00
2023-02-07T13:43:58.809Z,6.32
2023-02-07T13:45:06.836Z,7.22
2023-02-07T13:46:11.145Z,7.22
2023-02-07T13:47:34.221Z,6.07
2023-02-07T13:48:51.478Z,7.25
2023-02-07T13:49:53.298Z,7.70
2023-02-07T13:51:05.917Z,6.50
2023-02-07T13:52:16.453Z,7.00
2023-02-07T13:54:01.789Z,6.68
2023-02-07T13:55:18.301Z,7.70
2023-02-07T13:56:49.523Z,6.05
2023-02-07T13:58:11.321Z,6.65
2023-02-07T13:59:39.194Z,5.78
2023-02-07T14:01:01.885Z,7.72
2023-02-07T14:02:06.511Z,6.68
2023-02-07T14:03:20.182Z,7.10
2023-02-07T14:04:22.740Z,6.65
2023-02-07T14:05:35.928Z,6.13
2023-02-07T14:06:39.234Z,8.55
2023-02-07T14:07:41.140Z,5.47
2023-02-07T14:08:44.198Z,5.13
2023-02-07T14:09:48.020Z,7.13
2023-02-07T14:10:51.627Z,6.03
2023-02-07T14:12:02.858Z,4.55
2023-02-07T14:13:05.301Z,6.32
2023-02-07T14:15:01.547Z,7.25
2023-02-07T14:16:07.086Z,5.45
2023-02-07T14:17:27.059Z,5.47
2023-02-07T14:18:43.228Z,6.47
2023-02-07T14:19:45.535Z,5.82
2023-02-07T14:20:48.806Z,6.05
2023-02-07T14:22:20.881Z,8.80
2023-02-07T14:23:22.524Z,10.15
2023-02-07T14:24:31.030Z,9.80
2023-02-07T14:25:43.627Z,14.63
2023-02-07T14:26:48.422Z,6.80
2023-02-07T14:27:50.009Z,7.40
2023-02-07T14:28:51.728Z,6.80
2023-02-07T14:30:13.488Z,6.90
2023-02-07T14:31:23.748Z,9.18
2023-02-07T14:32:25.429Z,10.98
2023-02-07T14:33:35.571Z,9.38
2023-02-07T14:35:06.868Z,7.53
2023-02-07T14:36:14.477Z,9.25